createdAt,value
2024-03-05T00:00:23.225Z,94001.13
2024-03-05T00:01:20.368Z,93990.03
2024-03-05T00:02:18.472Z,93964.31
2024-03-05T00:03:15.574Z,93998.94
2024-03-05T00:04:12.416Z,93986.59
2024-03-05T00:05:10.281Z,93967.03
2024-03-05T00:06:07.595Z,93994.66
2024-03-05T00:07:04.718Z,93960.00
2024-03-05T00:08:01.652Z,93984.09
2024-03-05T00:08:58.551Z,93980.13
2024-03-05T00:09:56.473Z,93961.78
2024-03-05T00:10:55.299Z,93956.75
2024-03-05T00:11:52.532Z,93984.38
2024-03-05T00:12:49.458Z,93996.25
2024-03-05T00:13:46.505Z,93972.97
2024-03-05T00:14:43.353Z,93980.91
2024-03-05T00:15:40.991Z,93985.41
2024-03-05T00:16:37.846Z,93987.44
2024-03-05T00:17:34.828Z,93998.31
2024-03-05T00:18:31.678Z,93986.28
2024-03-05T00:19:28.552Z,93956.03
2024-03-05T00:20:25.733Z,93944.97
2024-03-05T00:21:22.690Z,93942.97
2024-03-05T00:22:22.340Z,93979.88
2024-03-05T00:23:19.255Z,93954.75
2024-03-05T00:24:16.097Z,93974.63
2024-03-05T00:25:13.548Z,93917.03
2024-03-05T00:26:15.972Z,93944.72
2024-03-05T00:27:12.818Z,93939.63
2024-03-05T00:28:09.941Z,93944.31
2024-03-05T00:29:07.926Z,93967.69
2024-03-05T00:30:06.220Z,93944.88
2024-03-05T00:31:04.103Z,93930.97
2024-03-05T00:32:00.956Z,93933.94
2024-03-05T00:32:57.863Z,93969.28
2024-03-05T00:33:54.702Z,93937.59
2024-03-05T00:34:51.588Z,93912.31
2024-03-05T00:35:48.571Z,93931.94
2024-03-05T00:36:45.411Z,93927.78
2024-03-05T00:37:42.311Z,93954.34
2024-03-05T00:38:39.206Z,93956.44
2024-03-05T00:39:36.057Z,93927.53
2024-03-05T00:40:33.015Z,93921.63
2024-03-05T00:41:30.041Z,93957.59
2024-03-05T00:42:26.876Z,93957.16
2024-03-05T00:43:23.816Z,93922.75
2024-03-05T00:44:20.658Z,93925.66
2024-03-05T00:45:18.758Z,93961.59
2024-03-05T00:46:17.947Z,93930.28
2024-03-05T00:47:14.857Z,93959.31
2024-03-05T00:48:11.709Z,93954.59
2024-03-05T00:49:11.839Z,93934.34
2024-03-05T00:50:14.880Z,93916.31
2024-03-05T00:51:11.838Z,93950.78
2024-03-05T00:52:08.994Z,93945.03
2024-03-05T00:53:06.069Z,93944.66
2024-03-05T00:54:03.012Z,93884.19
2024-03-05T00:55:01.064Z,93916.66
2024-03-05T00:55:58.170Z,93930.53
2024-03-05T00:56:55.082Z,93937.78
2024-03-05T00:57:52.723Z,93948.69
2024-03-05T00:58:49.576Z,93917.78
2024-03-05T00:59:49.376Z,93919.06
2024-03-05T01:00:46.897Z,93937.72
2024-03-05T01:01:44.625Z,93915.53
2024-03-05T01:02:43.701Z,93900.88
2024-03-05T01:03:40.540Z,93900.06
2024-03-05T01:04:37.773Z,93947.75
2024-03-05T01:05:34.633Z,93903.25
2024-03-05T01:06:31.986Z,93915.84
2024-03-05T01:07:28.913Z,93883.66
2024-03-05T01:08:25.746Z,93900.00
2024-03-05T01:09:25.983Z,93891.59
2024-03-05T01:10:23.274Z,93923.84
2024-03-05T01:11:20.211Z,93920.22
2024-03-05T01:12:17.604Z,93898.78
2024-03-05T01:13:14.527Z,93895.69
2024-03-05T01:14:11.588Z,93913.84
2024-03-05T01:15:08.705Z,93908.75
2024-03-05T01:16:05.835Z,93895.91
2024-03-05T01:17:05.822Z,93924.47
2024-03-05T01:18:02.971Z,93920.97
2024-03-05T01:19:00.693Z,93898.00
2024-03-05T01:19:58.327Z,93914.34
2024-03-05T01:20:55.239Z,93919.38
2024-03-05T01:21:52.150Z,93883.47
2024-03-05T01:22:49.044Z,93892.63
2024-03-05T01:23:45.951Z,93897.66
2024-03-05T01:24:42.893Z,93922.38
2024-03-05T01:25:39.860Z,93890.16
2024-03-05T01:26:38.886Z,93923.03
2024-03-05T01:27:35.859Z,93898.16
2024-03-05T01:28:32.792Z,93885.38
2024-03-05T01:29:31.596Z,93857.50
2024-03-05T01:30:29.256Z,93892.91
2024-03-05T01:31:27.506Z,93921.81
2024-03-05T01:32:24.373Z,93895.88
2024-03-05T01:33:21.945Z,93893.34
2024-03-05T01:34:18.965Z,93922.22
2024-03-05T01:35:17.841Z,93923.47
2024-03-05T01:36:16.601Z,93919.03
2024-03-05T01:37:13.586Z,93896.03
2024-03-05T01:38:10.431Z,93886.19
2024-03-05T01:39:07.272Z,93886.25
2024-03-05T01:40:07.681Z,93919.44
2024-03-05T01:41:04.894Z,93911.69
2024-03-05T01:42:01.729Z,93921.09
2024-03-05T01:42:59.069Z,93915.28
2024-03-05T01:43:56.032Z,93919.38
2024-03-05T01:44:52.829Z,93910.59
2024-03-05T01:45:52.966Z,93916.00
2024-03-05T01:46:54.364Z,93871.97
2024-03-05T01:47:51.516Z,93905.13
2024-03-05T01:48:49.040Z,93904.19
2024-03-05T01:49:46.073Z,93873.66
2024-03-05T01:50:45.942Z,93886.00
2024-03-05T01:51:45.617Z,93909.22
2024-03-05T01:52:45.198Z,93873.09
2024-03-05T01:53:44.991Z,93895.56
2024-03-05T01:54:43.961Z,93882.88
2024-03-05T01:55:41.787Z,93899.09
2024-03-05T01:56:38.768Z,93904.69
2024-03-05T01:57:36.130Z,93893.19
2024-03-05T01:58:33.084Z,93897.72
2024-03-05T01:59:30.268Z,93884.25
2024-03-05T02:00:27.945Z,93874.38
2024-03-05T02:01:26.425Z,93901.25
2024-03-05T02:02:25.084Z,93869.91
2024-03-05T02:03:22.190Z,93905.72
2024-03-05T02:04:19.531Z,93874.91
2024-03-05T02:05:16.719Z,93890.91
2024-03-05T02:06:15.866Z,93878.44
2024-03-05T02:07:13.870Z,93896.97
2024-03-05T02:08:10.776Z,93869.66
2024-03-05T02:09:12.721Z,93908.31
2024-03-05T02:10:10.691Z,93891.16
2024-03-05T02:11:09.481Z,93895.88
2024-03-05T02:12:06.911Z,93844.47
2024-03-05T02:13:03.786Z,93870.66
2024-03-05T02:14:01.713Z,93874.59
2024-03-05T02:14:58.578Z,93904.00
2024-03-05T02:15:55.640Z,93903.06
2024-03-05T02:16:53.639Z,93887.56
2024-03-05T02:17:51.904Z,93898.44
2024-03-05T02:18:48.726Z,93868.63
2024-03-05T02:19:51.308Z,93865.81
2024-03-05T02:20:48.362Z,93828.88
2024-03-05T02:21:46.017Z,93884.13
2024-03-05T02:22:43.800Z,93915.22
2024-03-05T02:23:41.232Z,93898.66
2024-03-05T02:24:39.225Z,93846.63
2024-03-05T02:25:36.725Z,93884.22
2024-03-05T02:26:33.692Z,93927.53
2024-03-05T02:27:34.934Z,93898.56
2024-03-05T02:28:32.530Z,93884.53
2024-03-05T02:29:32.143Z,93865.88
2024-03-05T02:30:30.636Z,93903.50
2024-03-05T02:31:28.162Z,93866.81
2024-03-05T02:32:27.008Z,93865.44
2024-03-05T02:33:23.887Z,93848.22
2024-03-05T02:34:22.544Z,93909.50
2024-03-05T02:35:19.794Z,93888.75
2024-03-05T02:36:16.688Z,93912.25
2024-03-05T02:37:13.825Z,93893.97
2024-03-05T02:38:11.154Z,93913.19
2024-03-05T02:39:08.447Z,93909.94
2024-03-05T02:40:15.464Z,93828.66
2024-03-05T02:41:12.547Z,93869.41
2024-03-05T02:42:09.387Z,93892.38
2024-03-05T02:43:07.958Z,93876.22
2024-03-05T02:44:05.228Z,93879.97
2024-03-05T02:45:05.936Z,93918.63
2024-03-05T02:46:02.800Z,93883.69
2024-03-05T02:46:59.799Z,93922.94
2024-03-05T02:47:56.633Z,93867.06
2024-03-05T02:48:54.285Z,93896.19
2024-03-05T02:49:52.076Z,93877.78
2024-03-05T02:50:48.906Z,93850.00
2024-03-05T02:51:46.015Z,93917.03
2024-03-05T02:52:43.171Z,93902.19
2024-03-05T02:53:40.100Z,93879.38
2024-03-05T02:54:37.085Z,93902.91
2024-03-05T02:55:39.140Z,93888.75
2024-03-05T02:56:36.041Z,93856.38
2024-03-05T02:57:32.819Z,93896.81
2024-03-05T02:58:29.690Z,93920.91
2024-03-05T02:59:26.576Z,93903.00
2024-03-05T03:00:25.491Z,93868.03
2024-03-05T03:01:22.525Z,93884.41
2024-03-05T03:02:21.483Z,93911.97
2024-03-05T03:03:18.348Z,93908.03
2024-03-05T03:04:16.645Z,93911.91
2024-03-05T03:05:14.298Z,93903.13
2024-03-05T03:06:20.434Z,93911.72
2024-03-05T03:07:18.016Z,93916.97
2024-03-05T03:08:15.751Z,93885.38
2024-03-05T03:09:12.673Z,93923.22
2024-03-05T03:10:11.099Z,93883.81
2024-03-05T03:11:08.870Z,93907.78
2024-03-05T03:12:06.402Z,93905.97
2024-03-05T03:13:03.306Z,93887.81
2024-03-05T03:14:00.191Z,93931.09
2024-03-05T03:14:57.097Z,93928.72
2024-03-05T03:15:54.033Z,93895.13
2024-03-05T03:16:51.276Z,93923.59
2024-03-05T03:17:48.961Z,93888.88
2024-03-05T03:18:46.083Z,93919.28
2024-03-05T03:19:44.265Z,93925.56
2024-03-05T03:20:41.298Z,93924.94
2024-03-05T03:21:38.236Z,93892.06
2024-03-05T03:22:36.276Z,93916.72
2024-03-05T03:23:33.665Z,93925.41
2024-03-05T03:24:30.445Z,93886.50
2024-03-05T03:25:27.316Z,93890.75
2024-03-05T03:26:24.909Z,93905.28
2024-03-05T03:27:21.764Z,93880.63
2024-03-05T03:28:19.047Z,93917.69
2024-03-05T03:29:15.912Z,93913.09
2024-03-05T03:30:19.359Z,93887.72
2024-03-05T03:31:16.828Z,93915.00
2024-03-05T03:32:13.702Z,93909.41
2024-03-05T03:33:10.646Z,93857.59
2024-03-05T03:34:07.492Z,93890.28
2024-03-05T03:35:07.450Z,93891.88
2024-03-05T03:36:05.147Z,93924.72
2024-03-05T03:37:01.961Z,93896.63
2024-03-05T03:37:58.856Z,93884.56
2024-03-05T03:38:55.689Z,93914.19
2024-03-05T03:39:52.502Z,93888.56
2024-03-05T03:40:49.374Z,93897.06
2024-03-05T03:41:49.763Z,93928.31
2024-03-05T03:42:47.009Z,93905.47
2024-03-05T03:43:43.886Z,93918.34
2024-03-05T03:44:41.693Z,93920.84
2024-03-05T03:45:38.506Z,93887.88
2024-03-05T03:46:38.842Z,93873.63
2024-03-05T03:47:35.725Z,93914.50
2024-03-05T03:48:32.599Z,93875.56
2024-03-05T03:49:29.514Z,93908.88
2024-03-05T03:50:26.465Z,93874.84
2024-03-05T03:51:23.628Z,93846.25
2024-03-05T03:52:20.505Z,93910.56
2024-03-05T03:53:17.304Z,93880.97
2024-03-05T03:54:14.140Z,93909.22
2024-03-05T03:55:11.018Z,93904.63
2024-03-05T03:56:07.860Z,93872.94
2024-03-05T03:57:04.947Z,93882.16
2024-03-05T03:58:02.207Z,93881.47
2024-03-05T03:58:59.206Z,93876.19
2024-03-05T03:59:56.138Z,93912.94
2024-03-05T04:00:53.397Z,93868.03
2024-03-05T04:01:51.409Z,93869.59
2024-03-05T04:02:48.970Z,93915.44
2024-03-05T04:03:46.449Z,93904.34
2024-03-05T04:04:43.841Z,93901.78
2024-03-05T04:05:40.731Z,93898.59
2024-03-05T04:06:37.517Z,93897.44
2024-03-05T04:07:34.900Z,93884.91
2024-03-05T04:08:31.757Z,93881.72
2024-03-05T04:09:28.789Z,93882.06
2024-03-05T04:10:25.677Z,93841.06
2024-03-05T04:11:23.318Z,93883.63
2024-03-05T04:12:20.223Z,93861.06
2024-03-05T04:13:18.848Z,93861.72
2024-03-05T04:14:16.596Z,93890.81
2024-03-05T04:15:13.795Z,93862.59
2024-03-05T04:16:11.455Z,93849.63
2024-03-05T04:17:08.281Z,93890.34
2024-03-05T04:18:06.184Z,93891.63
2024-03-05T04:19:03.049Z,93896.19
2024-03-05T04:20:00.017Z,93828.25
2024-03-05T04:20:56.868Z,93830.13
2024-03-05T04:21:53.735Z,93879.94
2024-03-05T04:22:50.714Z,93858.28
2024-03-05T04:23:47.883Z,93870.66
2024-03-05T04:24:53.506Z,93878.09
2024-03-05T04:25:51.834Z,93853.25
2024-03-05T04:26:49.755Z,93861.38
2024-03-05T04:27:49.738Z,93880.50
2024-03-05T04:28:50.856Z,93879.25
2024-03-05T04:29:48.751Z,93888.28
2024-03-05T04:30:49.697Z,93853.56
2024-03-05T04:32:06.213Z,93875.25
2024-03-05T04:33:05.365Z,93863.88
2024-03-05T04:34:04.200Z,93829.72
2024-03-05T04:35:01.849Z,93833.50
2024-03-05T04:35:59.444Z,93867.94
2024-03-05T04:36:57.928Z,93893.66
2024-03-05T04:37:57.277Z,93816.47
2024-03-05T04:38:54.249Z,93886.69
2024-03-05T04:39:51.047Z,93893.66
2024-03-05T04:40:47.898Z,93851.19
2024-03-05T04:41:45.725Z,93882.66
2024-03-05T04:42:42.762Z,93861.97
2024-03-05T04:43:39.824Z,93877.78
2024-03-05T04:44:37.177Z,93820.31
2024-03-05T04:45:39.194Z,93876.47
2024-03-05T04:46:36.112Z,93865.41
2024-03-05T04:47:33.172Z,93880.69
2024-03-05T04:48:30.006Z,93879.69
2024-03-05T04:49:27.952Z,93889.63
2024-03-05T04:50:24.873Z,93878.91
2024-03-05T04:51:21.824Z,93882.22
2024-03-05T04:52:19.399Z,93886.13
2024-03-05T04:53:16.275Z,93876.06
2024-03-05T04:54:13.164Z,93882.78
2024-03-05T04:55:11.297Z,93780.59
2024-03-05T04:56:08.326Z,93852.31
2024-03-05T04:57:06.675Z,93868.91
2024-03-05T04:58:03.621Z,93879.38
2024-03-05T04:59:01.482Z,93846.22
2024-03-05T04:59:59.246Z,93816.69
2024-03-05T05:00:56.359Z,93874.47
2024-03-05T05:01:53.422Z,93882.53
2024-03-05T05:02:52.602Z,93895.97
2024-03-05T05:03:49.738Z,93889.03
2024-03-05T05:04:46.877Z,93853.28
2024-03-05T05:05:43.896Z,93870.81
2024-03-05T05:06:40.701Z,93845.44
2024-03-05T05:07:37.517Z,93860.59
2024-03-05T05:08:35.853Z,93895.63
2024-03-05T05:09:33.132Z,93870.72
2024-03-05T05:10:30.196Z,93897.75
2024-03-05T05:11:27.226Z,93903.56
2024-03-05T05:12:24.181Z,93848.72
2024-03-05T05:13:21.739Z,93907.66
2024-03-05T05:14:18.606Z,93826.59
2024-03-05T05:15:15.767Z,93894.91
2024-03-05T05:16:12.887Z,93854.19
2024-03-05T05:17:09.764Z,93826.78
2024-03-05T05:18:07.048Z,93855.34
2024-03-05T05:19:06.312Z,93863.06
2024-03-05T05:20:09.937Z,93887.06
2024-03-05T05:22:23.187Z,93889.03
2024-03-05T05:23:19.984Z,93894.94
2024-03-05T05:24:16.854Z,93865.13
2024-03-05T05:25:18.122Z,93858.44
2024-03-05T05:26:15.168Z,93886.91
2024-03-05T05:27:12.039Z,93888.47
2024-03-05T05:28:08.871Z,93889.69
2024-03-05T05:29:05.652Z,93854.44
2024-03-05T05:30:09.629Z,93893.84
2024-03-05T05:31:25.839Z,93888.03
2024-03-05T05:32:23.245Z,93867.38
2024-03-05T05:33:20.057Z,93845.72
2024-03-05T05:34:16.920Z,93885.69
2024-03-05T05:35:13.817Z,93885.97
2024-03-05T05:36:11.831Z,93889.63
2024-03-05T05:37:08.775Z,93866.13
2024-03-05T05:38:05.721Z,93886.06
2024-03-05T05:39:03.180Z,93862.47
2024-03-05T05:40:00.049Z,93859.28
2024-03-05T05:40:56.899Z,93891.03
2024-03-05T05:41:54.114Z,93897.22
2024-03-05T05:42:51.586Z,93897.00
2024-03-05T05:43:50.142Z,93853.19
2024-03-05T05:44:48.159Z,93876.47
2024-03-05T05:45:47.294Z,93883.13
2024-03-05T05:46:45.403Z,93907.28
2024-03-05T05:47:50.370Z,93898.69
2024-03-05T05:48:50.349Z,93870.44
2024-03-05T05:49:48.179Z,93866.09
2024-03-05T05:50:52.946Z,93870.06
2024-03-05T05:51:52.475Z,93882.13
2024-03-05T05:52:54.336Z,93905.25
2024-03-05T05:53:52.118Z,93917.59
2024-03-05T05:54:50.553Z,93887.78
2024-03-05T05:55:47.452Z,93867.16
2024-03-05T05:56:44.865Z,93894.84
2024-03-05T05:57:41.650Z,93867.16
2024-03-05T05:58:38.847Z,93914.09
2024-03-05T05:59:35.820Z,93859.22
2024-03-05T06:00:40.258Z,93900.72
2024-03-05T06:01:38.893Z,93869.03
2024-03-05T06:02:36.087Z,93845.19
2024-03-05T06:03:34.766Z,93901.59
2024-03-05T06:04:34.022Z,93897.41
2024-03-05T06:05:33.423Z,93888.53
2024-03-05T06:06:30.650Z,93875.44
2024-03-05T06:07:27.491Z,93811.63
2024-03-05T06:08:24.439Z,93895.38
2024-03-05T06:09:35.148Z,93889.06
2024-03-05T06:10:32.106Z,93894.91
2024-03-05T06:11:29.056Z,93870.38
2024-03-05T06:12:26.716Z,93862.38
2024-03-05T06:13:25.498Z,93896.72
2024-03-05T06:14:22.613Z,93916.16
2024-03-05T06:15:19.585Z,93875.91
2024-03-05T06:16:17.785Z,93906.47
2024-03-05T06:17:14.789Z,93892.06
2024-03-05T06:18:12.158Z,93875.72
2024-03-05T06:19:10.112Z,93909.09
2024-03-05T06:20:11.767Z,93928.84
2024-03-05T06:21:08.928Z,93895.03
2024-03-05T06:22:05.928Z,93842.59
2024-03-05T06:23:04.690Z,93898.19
2024-03-05T06:24:02.242Z,93878.44
2024-03-05T06:24:59.028Z,93881.78
2024-03-05T06:25:55.904Z,93914.41
2024-03-05T06:26:52.814Z,93890.63
2024-03-05T06:27:49.717Z,93922.38
2024-03-05T06:28:46.620Z,93882.78
2024-03-05T06:29:44.081Z,93889.03
2024-03-05T06:30:47.032Z,93891.56
2024-03-05T06:31:44.915Z,93891.75
2024-03-05T06:32:49.594Z,93899.25
2024-03-05T06:33:46.670Z,93905.97
2024-03-05T06:34:43.789Z,93865.81
2024-03-05T06:35:40.731Z,93889.63
2024-03-05T06:36:38.752Z,93935.91
2024-03-05T06:37:36.001Z,93934.97
2024-03-05T06:38:32.992Z,93943.81
2024-03-05T06:39:36.613Z,93911.19
2024-03-05T06:40:34.173Z,93883.72
2024-03-05T06:41:31.828Z,93922.72
2024-03-05T06:42:31.542Z,93881.38
2024-03-05T06:43:37.778Z,93896.47
2024-03-05T06:44:37.656Z,93886.34
2024-03-05T06:45:38.012Z,93904.91
2024-03-05T06:46:34.941Z,93918.56
2024-03-05T06:47:40.077Z,93900.94
2024-03-05T06:48:39.372Z,93923.97
2024-03-05T06:49:42.217Z,93911.19
2024-03-05T06:50:42.746Z,93915.63
2024-03-05T06:51:53.143Z,93862.13
2024-03-05T06:53:11.172Z,93909.78
2024-03-05T06:56:00.244Z,93909.09
2024-03-05T06:56:57.493Z,93889.41
2024-03-05T06:57:54.393Z,93886.81
2024-03-05T06:58:51.322Z,93894.94
2024-03-05T06:59:50.972Z,93880.88
2024-03-05T07:00:48.991Z,93915.78
2024-03-05T07:01:46.015Z,93912.31
2024-03-05T07:02:43.368Z,93883.97
2024-03-05T07:03:41.682Z,93899.97
2024-03-05T07:04:39.973Z,93904.22
2024-03-05T07:05:37.260Z,93874.56
2024-03-05T07:06:35.394Z,93876.38
2024-03-05T07:07:34.403Z,93890.81
2024-03-05T07:08:31.244Z,93907.78
2024-03-05T07:09:32.018Z,93907.06
2024-03-05T07:10:29.908Z,93914.72
2024-03-05T07:11:28.213Z,93917.81
2024-03-05T07:12:25.860Z,93916.81
2024-03-05T07:13:22.732Z,93901.81
2024-03-05T07:14:19.686Z,93908.75
2024-03-05T07:15:16.557Z,93929.47
2024-03-05T07:16:19.775Z,93913.13
2024-03-05T07:17:16.874Z,93934.09
2024-03-05T07:18:15.921Z,93916.03
2024-03-05T07:19:13.345Z,93901.25
2024-03-05T07:20:23.887Z,93915.81
2024-03-05T07:21:24.238Z,93911.88
2024-03-05T07:22:21.201Z,93918.44
2024-03-05T07:23:18.901Z,93881.78
2024-03-05T07:24:17.434Z,93918.06
2024-03-05T07:25:18.161Z,93915.56
2024-03-05T07:26:16.646Z,93911.66
2024-03-05T07:27:13.850Z,93907.75
2024-03-05T07:28:11.492Z,93908.19
2024-03-05T07:29:08.380Z,93905.56
2024-03-05T07:30:06.155Z,93907.53
2024-03-05T07:31:03.299Z,93914.22
2024-03-05T07:32:00.335Z,93888.41
2024-03-05T07:32:57.905Z,93879.13
2024-03-05T07:33:55.868Z,93920.59
2024-03-05T07:34:52.830Z,93909.03
2024-03-05T07:35:50.103Z,93949.81
2024-03-05T07:36:46.949Z,93920.75
2024-03-05T07:37:47.854Z,93865.28
2024-03-05T07:38:44.710Z,93930.63
2024-03-05T07:39:41.539Z,93929.16
2024-03-05T07:40:38.559Z,93883.88
2024-03-05T07:41:35.580Z,93927.06
2024-03-05T07:42:32.462Z,93887.94
2024-03-05T07:43:29.270Z,93875.13
2024-03-05T07:44:26.067Z,93901.88
2024-03-05T07:45:24.339Z,93913.59
2024-03-05T07:46:21.396Z,93903.72
2024-03-05T07:47:18.770Z,93927.31
2024-03-05T07:48:16.002Z,93857.66
2024-03-05T07:49:12.909Z,93890.06
2024-03-05T07:50:13.633Z,93924.50
2024-03-05T07:51:11.089Z,93829.13
2024-03-05T07:52:07.944Z,93889.88
2024-03-05T07:53:05.089Z,93922.41
2024-03-05T07:54:01.973Z,93927.81
2024-03-05T07:54:59.026Z,93866.41
2024-03-05T07:55:55.897Z,93932.22
2024-03-05T07:56:53.206Z,93934.00
2024-03-05T07:57:50.638Z,93929.97
2024-03-05T07:58:47.574Z,93918.31
2024-03-05T07:59:44.386Z,93896.69
2024-03-05T08:00:41.514Z,93898.28
2024-03-05T08:01:38.826Z,93924.50
2024-03-05T08:02:46.617Z,93924.75
2024-03-05T08:03:43.461Z,93932.22
2024-03-05T08:04:40.936Z,93924.06
2024-03-05T08:05:37.818Z,93893.13
2024-03-05T08:06:34.813Z,93871.31
2024-03-05T08:07:36.858Z,93928.31
2024-03-05T08:08:34.737Z,93878.94
2024-03-05T08:09:31.676Z,93919.91
2024-03-05T08:10:29.279Z,93918.00
2024-03-05T08:11:26.373Z,93913.06
2024-03-05T08:12:23.204Z,93930.63
2024-03-05T08:13:21.376Z,93937.38
2024-03-05T08:14:18.308Z,93890.53
2024-03-05T08:15:17.966Z,93872.66
2024-03-05T08:16:14.879Z,93930.69
2024-03-05T08:17:11.752Z,93893.56
2024-03-05T08:18:12.024Z,93895.03
2024-03-05T08:19:09.017Z,93923.88
2024-03-05T08:20:08.297Z,93896.59
2024-03-05T08:21:05.355Z,93913.09
2024-03-05T08:22:04.269Z,93888.41
2024-03-05T08:23:01.125Z,93921.88
2024-03-05T08:23:57.982Z,93923.25
2024-03-05T08:24:54.870Z,93878.44
2024-03-05T08:25:52.917Z,93912.56
2024-03-05T08:26:50.671Z,93928.16
2024-03-05T08:27:51.973Z,93907.75
2024-03-05T08:28:48.926Z,93936.13
2024-03-05T08:29:46.203Z,93928.19
2024-03-05T08:30:43.734Z,93928.44
2024-03-05T08:31:40.963Z,93927.19
2024-03-05T08:32:40.688Z,93922.59
2024-03-05T08:33:37.574Z,93925.47
2024-03-05T08:34:34.988Z,93895.34
2024-03-05T08:35:32.657Z,93844.69
2024-03-05T08:36:33.095Z,93919.97
2024-03-05T08:37:30.016Z,93927.59
2024-03-05T08:38:28.242Z,93930.81
2024-03-05T08:39:25.287Z,93895.78
2024-03-05T08:40:22.801Z,93894.94
2024-03-05T08:41:19.728Z,93924.19
2024-03-05T08:42:17.193Z,93933.63
2024-03-05T08:43:15.538Z,93900.09
2024-03-05T08:44:12.417Z,93916.44
2024-03-05T08:45:13.977Z,93895.94
2024-03-05T08:46:10.915Z,93888.53
2024-03-05T08:47:08.520Z,93891.25
2024-03-05T08:48:05.828Z,93924.09
2024-03-05T08:49:02.754Z,93889.59
2024-03-05T08:49:59.651Z,93929.81
2024-03-05T08:50:56.508Z,93919.53
2024-03-05T08:51:57.129Z,93928.78
2024-03-05T08:52:54.099Z,93867.19
2024-03-05T08:53:50.974Z,93900.91
2024-03-05T08:54:47.809Z,93918.38
2024-03-05T08:55:44.681Z,93928.44
2024-03-05T08:56:41.584Z,93889.59
2024-03-05T08:57:42.689Z,93928.34
2024-03-05T08:58:39.803Z,93890.25
2024-03-05T08:59:36.770Z,93924.88
2024-03-05T09:00:42.080Z,93932.00
2024-03-05T09:01:40.602Z,93924.50
2024-03-05T09:02:38.920Z,93940.16
2024-03-05T09:03:36.565Z,93932.91
2024-03-05T09:04:33.451Z,93917.84
2024-03-05T09:05:30.342Z,93905.81
2024-03-05T09:06:28.333Z,93924.97
2024-03-05T09:07:25.905Z,93915.56
2024-03-05T09:08:23.055Z,93899.59
2024-03-05T09:09:20.316Z,93924.50
2024-03-05T09:10:19.092Z,93928.78
2024-03-05T09:11:16.110Z,93866.84
2024-03-05T09:12:15.122Z,93918.16
2024-03-05T09:13:11.968Z,93928.22
2024-03-05T09:14:10.029Z,93921.94
2024-03-05T09:15:07.481Z,93927.22
2024-03-05T09:16:04.669Z,93932.50
2024-03-05T09:17:02.251Z,93900.53
2024-03-05T09:17:59.631Z,93925.09
2024-03-05T09:18:56.501Z,93905.25
2024-03-05T09:19:54.072Z,93917.22
2024-03-05T09:20:50.949Z,93873.44
2024-03-05T09:21:47.749Z,93903.19
2024-03-05T09:22:46.593Z,93912.31
2024-03-05T09:23:43.869Z,93904.97
2024-03-05T09:24:40.709Z,93903.69
2024-03-05T09:25:39.892Z,93911.13
2024-03-05T09:26:37.883Z,93906.81
2024-03-05T09:27:37.269Z,93899.34
2024-03-05T09:28:36.467Z,93872.09
2024-03-05T09:29:33.340Z,93861.53
2024-03-05T09:30:32.448Z,93896.75
2024-03-05T09:31:29.420Z,93913.81
2024-03-05T09:32:26.361Z,93887.69
2024-03-05T09:33:23.363Z,93891.16
2024-03-05T09:34:21.295Z,93864.00
2024-03-05T09:35:19.337Z,93903.50
2024-03-05T09:36:16.288Z,93904.81
2024-03-05T09:37:13.193Z,93838.41
2024-03-05T09:38:10.397Z,93876.69
2024-03-05T09:39:10.852Z,93899.75
2024-03-05T09:40:08.383Z,93898.75
2024-03-05T09:41:07.064Z,93886.88
2024-03-05T09:42:04.190Z,93867.75
2024-03-05T09:43:05.167Z,93900.91
2024-03-05T09:44:04.714Z,93896.72
2024-03-05T09:45:06.792Z,93818.31
2024-03-05T09:46:06.074Z,93877.09
2024-03-05T09:47:03.592Z,93881.34
2024-03-05T09:48:01.026Z,93879.53
2024-03-05T09:49:04.262Z,93896.63
2024-03-05T09:50:12.644Z,93907.81
2024-03-05T09:51:15.964Z,93892.75
2024-03-05T09:52:14.943Z,93864.16
2024-03-05T09:53:13.482Z,93869.25
2024-03-05T09:54:14.259Z,93895.56
2024-03-05T09:55:13.530Z,93863.34
2024-03-05T09:56:10.745Z,93888.25
2024-03-05T09:57:08.094Z,93901.56
2024-03-05T09:58:15.415Z,93863.41
2024-03-05T09:59:14.303Z,93896.19
2024-03-05T10:00:19.689Z,93896.47
2024-03-05T10:01:17.804Z,93884.00
2024-03-05T10:02:17.493Z,93875.81
2024-03-05T10:03:14.460Z,93888.16
2024-03-05T10:04:14.309Z,93860.09
2024-03-05T10:05:11.793Z,93895.06
2024-03-05T10:06:12.942Z,93895.97
2024-03-05T10:07:10.531Z,93896.03
2024-03-05T10:08:07.962Z,93877.38
2024-03-05T10:09:06.603Z,93863.47
2024-03-05T10:10:08.954Z,93868.22
2024-03-05T10:11:06.525Z,93886.75
2024-03-05T10:12:05.064Z,93897.38
2024-03-05T10:13:02.888Z,93902.66
2024-03-05T10:14:09.445Z,93895.44
2024-03-05T10:15:18.987Z,93886.50
2024-03-05T10:16:16.289Z,93901.25
2024-03-05T10:17:13.127Z,93886.25
2024-03-05T10:18:10.077Z,93859.50
2024-03-05T10:19:18.477Z,93860.91
2024-03-05T10:20:38.836Z,93853.44
2024-03-05T10:21:35.983Z,93860.13
2024-03-05T10:22:32.929Z,93861.09
2024-03-05T10:23:30.100Z,93897.66
2024-03-05T10:24:32.721Z,93857.91
2024-03-05T10:25:31.526Z,93856.31
2024-03-05T10:26:31.068Z,93827.19
2024-03-05T10:27:29.938Z,93886.63
2024-03-05T10:28:32.168Z,93869.69
2024-03-05T10:29:39.040Z,93850.13
2024-03-05T10:30:38.679Z,93888.81
2024-03-05T10:31:48.155Z,93882.09
2024-03-05T10:32:46.546Z,93862.09
2024-03-05T10:33:43.344Z,93854.75
2024-03-05T10:34:47.295Z,93882.34
2024-03-05T10:35:51.210Z,93845.34
2024-03-05T10:36:48.752Z,93864.94
2024-03-05T10:38:04.703Z,93822.53
2024-03-05T10:39:04.162Z,93884.94
2024-03-05T10:40:01.243Z,93881.81
2024-03-05T10:41:00.260Z,93838.19
2024-03-05T10:42:01.093Z,93886.47
2024-03-05T10:43:01.150Z,93880.31
2024-03-05T10:44:02.356Z,93873.72
2024-03-05T10:45:00.480Z,93875.59
2024-03-05T10:45:57.475Z,93884.16
2024-03-05T10:46:57.286Z,93851.34
2024-03-05T10:47:58.316Z,93855.03
2024-03-05T10:48:57.117Z,93872.03
2024-03-05T10:49:54.286Z,93871.50
2024-03-05T10:50:55.322Z,93858.78
2024-03-05T10:51:54.769Z,93843.34
2024-03-05T10:52:55.475Z,93853.38
2024-03-05T10:53:52.454Z,93863.78
2024-03-05T10:54:50.709Z,93869.88
2024-03-05T10:55:52.813Z,93840.44
2024-03-05T10:56:53.311Z,93857.69
2024-03-05T10:58:09.738Z,93841.03
2024-03-05T10:59:16.728Z,93878.94
2024-03-05T11:00:16.124Z,93865.38
2024-03-05T11:01:21.993Z,93868.81
2024-03-05T11:02:25.611Z,93866.75
2024-03-05T11:03:38.821Z,93858.03
2024-03-05T11:04:36.225Z,93855.91
2024-03-05T11:05:55.201Z,93874.19
2024-03-05T11:06:56.678Z,93868.75
2024-03-05T11:07:55.420Z,93876.19
2024-03-05T11:08:52.710Z,93873.56
2024-03-05T11:09:51.121Z,93868.81
2024-03-05T11:10:59.052Z,93879.41
2024-03-05T11:12:17.524Z,93879.34
2024-03-05T11:13:16.084Z,93867.25
2024-03-05T11:14:15.390Z,93854.81
2024-03-05T11:15:14.078Z,93840.78
2024-03-05T11:16:11.371Z,93861.97
2024-03-05T11:17:13.857Z,93855.63
2024-03-05T11:18:40.733Z,93877.00
2024-03-05T11:19:39.698Z,93861.94
2024-03-05T11:20:44.413Z,93872.03
2024-03-05T11:21:43.166Z,93838.09
2024-03-05T11:22:45.065Z,93881.25
2024-03-05T11:23:52.684Z,93892.72
2024-03-05T11:24:56.701Z,93858.50
2024-03-05T11:25:58.234Z,93826.75
2024-03-05T11:27:13.158Z,93849.47
2024-03-05T11:28:12.359Z,93882.16
2024-03-05T11:29:15.712Z,93876.97
2024-03-05T11:30:18.596Z,93884.78
2024-03-05T11:31:21.927Z,93895.25